createdAt,value
2016-10-01T00:01:04.780Z,0
2016-10-01T00:01:49.887Z,0
2016-10-01T00:03:04.828Z,0
2016-10-01T00:03:49.933Z,0
2016-10-01T00:05:04.874Z,0
2016-10-01T00:06:04.896Z,0
2016-10-01T00:06:49.995Z,0
2016-10-01T00:07:50.022Z,0
2016-10-01T00:09:04.960Z,0
2016-10-01T00:09:50.075Z,0
2016-10-01T00:10:50.085Z,0
2016-10-01T00:12:05.036Z,0
2016-10-01T00:12:50.133Z,0
2016-10-01T00:13:50.153Z,0
2016-10-01T00:15:05.100Z,0
2016-10-01T00:15:50.555Z,0
2016-10-01T00:17:05.139Z,0
2016-10-01T00:17:50.246Z,0
2016-10-01T00:19:05.189Z,0
2016-10-01T00:19:50.281Z,0
2016-10-01T00:20:50.313Z,0
2016-10-01T00:22:50.405Z,0
2016-10-01T00:23:50.427Z,0
2016-10-01T00:24:50.401Z,0
2016-10-01T00:25:50.419Z,0
2016-10-01T00:26:50.447Z,0
2016-10-01T00:27:50.476Z,0
2016-10-01T00:28:50.508Z,0
2016-10-01T00:30:50.556Z,0
2016-10-01T00:32:05.477Z,0
2016-10-01T00:32:50.586Z,0
2016-10-01T00:34:05.528Z,0
2016-10-01T00:35:05.539Z,0
2016-10-01T00:35:50.654Z,0
2016-10-01T00:37:05.595Z,0
2016-10-01T00:37:50.697Z,0
2016-10-01T00:38:50.719Z,0
2016-10-01T00:39:50.736Z,0
2016-10-01T00:40:50.760Z,0
2016-10-01T00:41:50.841Z,0
2016-10-01T00:42:50.808Z,0
2016-10-01T00:44:05.756Z,0
2016-10-01T00:44:50.846Z,0
2016-10-01T00:45:50.871Z,0
2016-10-01T00:46:50.938Z,0
2016-10-01T00:48:20.764Z,0
2016-10-01T00:49:05.858Z,0
2016-10-01T00:49:50.974Z,0
2016-10-01T00:51:05.913Z,0
2016-10-01T00:51:51.018Z,0
2016-10-01T00:52:51.033Z,0
2016-10-01T00:53:51.055Z,0
2016-10-01T00:54:51.078Z,0
2016-10-01T00:55:51.106Z,0
2016-10-01T00:56:51.118Z,0
2016-10-01T00:57:51.141Z,0
2016-10-01T00:59:06.095Z,0
2016-10-01T00:59:51.182Z,0
2016-10-01T01:00:51.201Z,0
2016-10-01T01:01:51.229Z,0
2016-10-01T01:02:51.253Z,0
2016-10-01T01:03:51.327Z,0
2016-10-01T01:04:51.296Z,0
2016-10-01T01:06:06.243Z,0
2016-10-01T01:06:51.345Z,0
2016-10-01T01:07:51.366Z,0
2016-10-01T01:08:51.390Z,0
2016-10-01T01:09:51.410Z,0
2016-10-01T01:10:51.434Z,0
2016-10-01T01:11:51.458Z,0
2016-10-01T01:12:51.483Z,0
2016-10-01T01:14:06.423Z,0
2016-10-01T01:15:06.451Z,0
2016-10-01T01:15:51.761Z,0
2016-10-01T01:17:06.504Z,0
2016-10-01T01:17:51.578Z,0
2016-10-01T01:18:51.610Z,0
2016-10-01T01:20:06.547Z,0
2016-10-01T01:20:51.656Z,0
2016-10-01T01:21:51.681Z,0
2016-10-01T01:23:51.724Z,0
2016-10-01T01:24:51.748Z,0
2016-10-01T01:25:51.768Z,0
2016-10-01T01:26:51.788Z,0
2016-10-01T01:27:51.801Z,0
2016-10-01T01:29:51.851Z,0
2016-10-01T01:30:51.881Z,0
2016-10-01T01:32:06.881Z,0
2016-10-01T01:32:51.943Z,0
2016-10-01T01:33:51.942Z,0
2016-10-01T01:34:51.986Z,0
2016-10-01T01:35:51.990Z,0
2016-10-01T01:37:06.988Z,0
2016-10-01T01:38:07.249Z,0
2016-10-01T01:38:52.064Z,0
2016-10-01T01:39:52.081Z,0
2016-10-01T01:40:52.105Z,0
2016-10-01T01:41:52.133Z,0
2016-10-01T01:42:52.146Z,0
2016-10-01T01:43:52.220Z,0
2016-10-01T01:44:52.192Z,0
2016-10-01T01:46:52.234Z,0
2016-10-01T01:47:52.246Z,0
2016-10-01T01:48:52.279Z,0
2016-10-01T01:50:52.319Z,0
2016-10-01T01:52:07.262Z,0
2016-10-01T01:52:52.364Z,0
2016-10-01T01:54:07.306Z,0
2016-10-01T01:54:52.461Z,0
2016-10-01T01:55:52.443Z,0
2016-10-01T01:56:52.446Z,0
2016-10-01T01:57:52.469Z,0
2016-10-01T01:58:52.487Z,0
2016-10-01T01:59:52.526Z,0
2016-10-01T02:00:52.538Z,0
2016-10-01T02:01:52.559Z,0
2016-10-01T02:02:52.574Z,0
2016-10-01T02:03:52.606Z,0
2016-10-01T02:05:07.549Z,0
2016-10-01T02:05:52.707Z,0
2016-10-01T02:06:52.674Z,0
2016-10-01T02:08:07.619Z,0
2016-10-01T02:08:52.718Z,0
2016-10-01T02:10:07.654Z,0
2016-10-01T02:10:52.760Z,0
2016-10-01T02:11:52.794Z,0
2016-10-01T02:12:52.797Z,0
2016-10-01T02:13:52.819Z,0
2016-10-01T02:14:52.845Z,0
2016-10-01T02:15:52.862Z,0
2016-10-01T02:16:52.884Z,0
2016-10-01T02:17:52.905Z,0
2016-10-01T02:18:52.933Z,0
2016-10-01T02:20:07.878Z,0
2016-10-01T02:20:52.978Z,0
2016-10-01T02:21:53.048Z,0
2016-10-01T02:22:53.126Z,0
2016-10-01T02:23:53.082Z,0
2016-10-01T02:24:53.118Z,0
2016-10-01T02:26:08.060Z,0
2016-10-01T02:26:53.110Z,0
2016-10-01T02:28:08.046Z,0
2016-10-01T02:28:53.161Z,0
2016-10-01T02:30:08.096Z,0
2016-10-01T02:30:53.500Z,0
2016-10-01T02:31:53.219Z,0
2016-10-01T02:33:08.161Z,0
2016-10-01T02:33:53.272Z,0
2016-10-01T02:34:53.304Z,0
2016-10-01T02:35:53.359Z,0
2016-10-01T02:36:53.343Z,0
2016-10-01T02:37:53.351Z,0
2016-10-01T02:38:53.375Z,0
2016-10-01T02:39:53.398Z,0
2016-10-01T02:41:08.335Z,0
2016-10-01T02:41:53.437Z,0
2016-10-01T02:42:53.456Z,0
2016-10-01T02:43:53.482Z,0
2016-10-01T02:44:53.496Z,0
2016-10-01T02:45:53.529Z,0
2016-10-01T02:46:53.541Z,0
2016-10-01T02:47:53.573Z,0
2016-10-01T02:48:53.590Z,0
2016-10-01T02:49:53.612Z,0
2016-10-01T02:50:53.631Z,0
2016-10-01T02:52:08.627Z,0
2016-10-01T02:54:08.625Z,0
2016-10-01T02:55:08.635Z,0
2016-10-01T02:55:53.758Z,0
2016-10-01T02:56:53.762Z,0
2016-10-01T02:58:08.705Z,0
2016-10-01T02:58:53.803Z,0
2016-10-01T02:59:53.829Z,0
2016-10-01T03:00:53.854Z,0
2016-10-01T03:01:53.874Z,0
2016-10-01T03:02:53.950Z,0
2016-10-01T03:03:53.929Z,0
2016-10-01T03:04:53.936Z,0
2016-10-01T03:05:53.966Z,0
2016-10-01T03:06:54.037Z,0
2016-10-01T03:07:54.005Z,0
2016-10-01T03:08:54.078Z,0
2016-10-01T03:09:54.054Z,0
2016-10-01T03:11:09.018Z,0
2016-10-01T03:13:09.244Z,0
2016-10-01T03:13:54.207Z,0
2016-10-01T03:15:09.086Z,0
2016-10-01T03:16:09.097Z,0
2016-10-01T03:17:54.230Z,0
2016-10-01T03:18:54.273Z,0
2016-10-01T03:19:54.313Z,0
2016-10-01T03:20:54.342Z,0
2016-10-01T03:21:54.419Z,0
2016-10-01T03:22:54.392Z,0
2016-10-01T03:23:54.364Z,0
2016-10-01T03:25:09.298Z,0
2016-10-01T03:25:54.413Z,0
2016-10-01T03:26:54.433Z,0
2016-10-01T03:29:09.389Z,0
2016-10-01T03:29:54.490Z,0
2016-10-01T03:31:09.439Z,0
2016-10-01T03:32:09.458Z,0
2016-10-01T03:33:09.479Z,0
2016-10-01T03:33:54.589Z,0
2016-10-01T03:34:54.896Z,0
2016-10-01T03:36:09.800Z,0
2016-10-01T03:36:54.894Z,0
2016-10-01T03:37:54.714Z,0
2016-10-01T03:38:54.995Z,0
2016-10-01T03:39:55.018Z,0
2016-10-01T03:41:09.652Z,0
2016-10-01T03:41:54.750Z,0
2016-10-01T03:43:09.695Z,0
2016-10-01T03:44:09.719Z,0
2016-10-01T03:45:09.741Z,0
2016-10-01T03:45:54.840Z,0
2016-10-01T03:46:54.864Z,0
2016-10-01T03:47:54.936Z,0
2016-10-01T03:48:54.909Z,0
2016-10-01T03:49:54.930Z,0
2016-10-01T03:50:54.952Z,0
2016-10-01T03:51:54.974Z,0
2016-10-01T03:52:55.040Z,0
2016-10-01T03:53:55.016Z,0
2016-10-01T03:54:55.032Z,0
2016-10-01T03:57:10.010Z,0
2016-10-01T03:57:55.101Z,0
2016-10-01T03:58:55.129Z,0
2016-10-01T03:59:55.166Z,0
2016-10-01T04:01:10.143Z,0
2016-10-01T04:01:55.194Z,0
2016-10-01T04:02:55.216Z,0
2016-10-01T04:03:55.236Z,0
2016-10-01T04:05:10.181Z,0
2016-10-01T04:06:10.202Z,0
2016-10-01T04:06:55.302Z,0
2016-10-01T04:08:10.245Z,0
2016-10-01T04:08:55.339Z,0
2016-10-01T04:10:10.303Z,0
2016-10-01T04:10:55.395Z,0
2016-10-01T04:11:55.420Z,0
2016-10-01T04:13:10.361Z,0
2016-10-01T04:13:55.459Z,0
2016-10-01T04:14:55.532Z,0
2016-10-01T04:16:10.427Z,0
2016-10-01T04:16:55.533Z,0
2016-10-01T04:17:55.541Z,0
2016-10-01T04:18:55.567Z,0
2016-10-01T04:20:10.513Z,0
2016-10-01T04:20:55.618Z,0
2016-10-01T04:22:10.555Z,0
2016-10-01T04:22:55.682Z,0
2016-10-01T04:24:10.596Z,0
2016-10-01T04:25:10.617Z,0
2016-10-01T04:25:55.724Z,0
2016-10-01T04:26:55.749Z,0
2016-10-01T04:27:55.767Z,0
2016-10-01T04:28:55.786Z,0
2016-10-01T04:29:55.814Z,0
2016-10-01T04:31:10.746Z,0
2016-10-01T04:32:55.868Z,0
2016-10-01T04:33:55.897Z,0
2016-10-01T04:34:55.917Z,0
2016-10-01T04:35:55.941Z,0
2016-10-01T04:37:10.885Z,0
2016-10-01T04:37:56.350Z,0
2016-10-01T04:38:56.059Z,0
2016-10-01T04:39:56.027Z,0
2016-10-01T04:40:56.060Z,0
2016-10-01T04:41:56.080Z,0
2016-10-01T04:42:56.098Z,0
2016-10-01T04:43:56.162Z,0
2016-10-01T04:44:56.139Z,0
2016-10-01T04:45:56.157Z,0
2016-10-01T04:46:56.182Z,0
2016-10-01T04:48:11.169Z,0
2016-10-01T04:48:56.223Z,0
2016-10-01T04:51:11.197Z,0
2016-10-01T04:51:56.304Z,0
2016-10-01T04:52:56.310Z,0
2016-10-01T04:53:56.349Z,0
2016-10-01T04:55:11.484Z,0
2016-10-01T04:56:56.408Z,0
2016-10-01T04:57:56.424Z,0
2016-10-01T04:58:56.693Z,0
2016-10-01T05:00:11.391Z,0
2016-10-01T05:00:56.487Z,0
2016-10-01T05:01:56.515Z,0
2016-10-01T05:02:56.535Z,0
2016-10-01T05:04:11.477Z,0
2016-10-01T05:04:56.579Z,0
2016-10-01T05:05:56.599Z,0
2016-10-01T05:07:11.563Z,0
2016-10-01T05:07:56.649Z,0
2016-10-01T05:08:56.668Z,0
2016-10-01T05:10:11.610Z,0
2016-10-01T05:10:56.714Z,0
2016-10-01T05:11:56.749Z,0
2016-10-01T05:12:56.763Z,0
2016-10-01T05:13:56.771Z,0
2016-10-01T05:14:56.805Z,0
2016-10-01T05:15:56.826Z,0
2016-10-01T05:17:11.764Z,0
2016-10-01T05:17:56.860Z,0
2016-10-01T05:18:57.141Z,0
2016-10-01T05:20:11.838Z,0
2016-10-01T05:21:11.850Z,0
2016-10-01T05:21:57.252Z,0
2016-10-01T05:22:57.030Z,0
2016-10-01T05:23:57.249Z,0
2016-10-01T05:24:57.080Z,0
2016-10-01T05:25:57.036Z,0
2016-10-01T05:26:57.061Z,0
2016-10-01T05:27:57.380Z,5
2016-10-01T05:29:57.138Z,5
2016-10-01T05:30:57.151Z,5
2016-10-01T05:32:12.096Z,5
2016-10-01T05:33:12.115Z,5
2016-10-01T05:33:57.217Z,5
2016-10-01T05:35:12.162Z,5
2016-10-01T05:36:12.185Z,5
2016-10-01T05:36:57.280Z,5
2016-10-01T05:37:57.304Z,5
2016-10-01T05:38:57.328Z,5
2016-10-01T05:39:57.351Z,5
2016-10-01T05:40:57.365Z,5
2016-10-01T05:41:57.391Z,5
2016-10-01T05:42:57.413Z,5
2016-10-01T05:43:57.435Z,5
2016-10-01T05:44:57.656Z,5
2016-10-01T05:46:12.395Z,5
2016-10-01T05:47:12.435Z,5
2016-10-01T05:47:57.521Z,10
2016-10-01T05:48:57.546Z,10
2016-10-01T05:51:27.434Z,10
2016-10-01T05:51:57.622Z,10
2016-10-01T05:52:57.653Z,10
2016-10-01T05:53:57.664Z,10
2016-10-01T05:54:57.677Z,10
2016-10-01T05:55:57.704Z,10
2016-10-01T05:57:12.947Z,10
2016-10-01T05:58:12.665Z,10
2016-10-01T05:58:57.768Z,10
2016-10-01T05:59:58.034Z,10
2016-10-01T06:01:12.736Z,10
2016-10-01T06:01:57.838Z,10
2016-10-01T06:03:12.784Z,10
2016-10-01T06:03:58.074Z,10
2016-10-01T06:04:57.899Z,10
2016-10-01T06:06:27.768Z,10
2016-10-01T06:06:58.141Z,15
2016-10-01T06:07:57.979Z,15
2016-10-01T06:08:57.991Z,15
2016-10-01T06:10:13.230Z,20
2016-10-01T06:10:58.031Z,20
2016-10-01T06:12:58.074Z,25
2016-10-01T06:13:58.110Z,30
2016-10-01T06:14:58.120Z,30
2016-10-01T06:15:58.158Z,35
2016-10-01T06:16:58.162Z,35
2016-10-01T06:17:58.195Z,35
2016-10-01T06:19:13.133Z,30
2016-10-01T06:19:58.234Z,30
2016-10-01T06:20:58.253Z,30
2016-10-01T06:21:58.525Z,25
2016-10-01T06:23:13.431Z,25
2016-10-01T06:23:58.329Z,25
2016-10-01T06:24:58.549Z,25
2016-10-01T06:25:58.361Z,25
2016-10-01T06:26:58.386Z,20
2016-10-01T06:27:58.421Z,20
2016-10-01T06:28:58.435Z,20
2016-10-01T06:29:58.461Z,20
2016-10-01T06:30:58.495Z,20
2016-10-01T06:31:58.500Z,20
2016-10-01T06:32:58.519Z,25
2016-10-01T06:33:58.547Z,25
2016-10-01T06:34:58.822Z,30
2016-10-01T06:35:58.590Z,30
2016-10-01T06:36:58.602Z,35
2016-10-01T06:38:28.477Z,40
2016-10-01T06:39:13.582Z,40
2016-10-01T06:40:13.612Z,40
2016-10-01T06:40:58.703Z,40
2016-10-01T06:41:58.725Z,40
2016-10-01T06:42:58.746Z,40
2016-10-01T06:43:58.764Z,40
2016-10-01T06:44:58.792Z,35
2016-10-01T06:45:58.810Z,35
2016-10-01T06:47:07.639Z,35
2016-10-01T06:48:13.781Z,35
2016-10-01T06:48:59.192Z,35
2016-10-01T06:49:58.903Z,35
2016-10-01T06:50:58.922Z,35
2016-10-01T06:52:14.063Z,35
2016-10-01T06:52:59.066Z,35
2016-10-01T06:54:13.929Z,40
2016-10-01T06:55:13.942Z,40
2016-10-01T06:56:28.880Z,40
2016-10-01T06:56:59.067Z,40
2016-10-01T06:57:59.079Z,45
2016-10-01T06:58:59.110Z,45
2016-10-01T06:59:59.132Z,45
2016-10-01T07:00:59.149Z,50
2016-10-01T07:01:59.184Z,50
2016-10-01T07:02:59.192Z,45
2016-10-01T07:03:59.217Z,50
2016-10-01T07:04:59.238Z,55
2016-10-01T07:05:59.266Z,55
2016-10-01T07:06:59.485Z,55
2016-10-01T07:07:59.301Z,55
2016-10-01T07:08:59.337Z,60
2016-10-01T07:09:59.351Z,60
2016-10-01T07:11:14.296Z,65
2016-10-01T07:11:59.395Z,70
2016-10-01T07:12:59.421Z,70
2016-10-01T07:13:59.457Z,75
2016-10-01T07:14:59.467Z,75
2016-10-01T07:15:59.493Z,75
2016-10-01T07:16:59.502Z,80
2016-10-01T07:19:14.587Z,85
2016-10-01T07:19:59.580Z,85
2016-10-01T07:20:59.609Z,90
2016-10-01T07:22:14.549Z,90
2016-10-01T07:23:14.571Z,90
2016-10-01T07:24:14.847Z,95
2016-10-01T07:24:59.697Z,100
2016-10-01T07:26:14.642Z,95
2016-10-01T07:26:59.747Z,95
2016-10-01T07:27:59.763Z,90
2016-10-01T07:29:14.728Z,85
2016-10-01T07:29:59.811Z,80
2016-10-01T07:30:59.841Z,75
2016-10-01T07:31:59.855Z,75
2016-10-01T07:32:59.885Z,75
2016-10-01T07:33:59.900Z,80
2016-10-01T07:34:59.928Z,80
2016-10-01T07:35:59.949Z,85
2016-10-01T07:36:59.973Z,80
2016-10-01T07:37:59.999Z,75
2016-10-01T07:39:14.944Z,65
2016-10-01T07:40:00.048Z,60
2016-10-01T07:41:14.988Z,55
2016-10-01T07:42:00.095Z,55
2016-10-01T07:43:15.056Z,50
2016-10-01T07:44:00.138Z,50
2016-10-01T07:45:00.158Z,50
2016-10-01T07:46:00.194Z,50
2016-10-01T07:47:00.242Z,50
2016-10-01T07:48:00.230Z,50
2016-10-01T07:49:00.257Z,50
2016-10-01T07:50:00.272Z,50
2016-10-01T07:51:15.235Z,50
2016-10-01T07:52:15.250Z,50
2016-10-01T07:53:00.349Z,50
2016-10-01T07:54:00.369Z,50
2016-10-01T07:55:00.394Z,50
2016-10-01T07:57:00.437Z,50
2016-10-01T07:58:15.387Z,50
2016-10-01T07:59:00.481Z,50
2016-10-01T08:00:00.503Z,50
2016-10-01T08:01:00.544Z,55
2016-10-01T08:02:00.558Z,60
2016-10-01T08:03:00.580Z,60
2016-10-01T08:04:00.853Z,65
2016-10-01T08:05:00.636Z,65
2016-10-01T08:06:00.653Z,65
2016-10-01T08:07:00.670Z,65
2016-10-01T08:08:00.703Z,65
2016-10-01T08:09:00.718Z,60
2016-10-01T08:10:30.595Z,60
2016-10-01T08:11:00.771Z,60
2016-10-01T08:12:00.896Z,60
2016-10-01T08:13:00.813Z,60
2016-10-01T08:14:30.682Z,60
2016-10-01T08:15:00.856Z,60
2016-10-01T08:16:00.880Z,60
2016-10-01T08:17:00.899Z,55
2016-10-01T08:18:00.933Z,55
2016-10-01T08:20:01.236Z,55
2016-10-01T08:21:16.217Z,60
2016-10-01T08:22:01.024Z,55
2016-10-01T08:23:01.250Z,55
2016-10-01T08:24:01.074Z,55
2016-10-01T08:26:01.123Z,55
2016-10-01T08:27:01.146Z,55
2016-10-01T08:28:01.166Z,55
2016-10-01T08:30:16.131Z,55
2016-10-01T08:31:01.244Z,55
2016-10-01T08:32:01.260Z,55
2016-10-01T08:33:01.283Z,55
2016-10-01T08:34:01.292Z,60
2016-10-01T08:35:16.253Z,60
2016-10-01T08:36:01.358Z,60
2016-10-01T08:37:01.384Z,60
2016-10-01T08:38:01.390Z,60
2016-10-01T08:39:01.434Z,65
2016-10-01T08:40:01.445Z,65
2016-10-01T08:41:01.473Z,65
2016-10-01T08:42:31.341Z,60
2016-10-01T08:43:01.527Z,60
2016-10-01T08:44:16.565Z,60
2016-10-01T08:45:01.558Z,60
2016-10-01T08:46:16.508Z,60
2016-10-01T08:47:01.612Z,60
2016-10-01T08:48:01.641Z,60
2016-10-01T08:49:01.650Z,60
2016-10-01T08:50:16.612Z,60
2016-10-01T08:51:01.703Z,60
2016-10-01T08:52:01.727Z,60
2016-10-01T08:53:01.748Z,60
2016-10-01T08:54:01.783Z,65
2016-10-01T08:55:01.798Z,65
2016-10-01T08:56:01.817Z,65
2016-10-01T08:58:02.168Z,60
2016-10-01T08:59:01.898Z,60
2016-10-01T09:00:01.918Z,60
2016-10-01T09:01:16.867Z,55
2016-10-01T09:02:01.970Z,55
2016-10-01T09:03:01.994Z,55
2016-10-01T09:04:02.022Z,55
2016-10-01T09:05:02.035Z,50
2016-10-01T09:06:02.071Z,50
2016-10-01T09:07:02.079Z,50
2016-10-01T09:08:02.098Z,50
2016-10-01T09:09:17.055Z,55
2016-10-01T09:11:17.105Z,55
2016-10-01T09:12:02.201Z,55
2016-10-01T09:13:17.152Z,55
2016-10-01T09:14:02.242Z,55
2016-10-01T09:15:02.274Z,55
2016-10-01T09:16:17.214Z,55
2016-10-01T09:17:17.237Z,55
2016-10-01T09:18:17.260Z,60
2016-10-01T09:19:17.292Z,60
2016-10-01T09:20:02.386Z,60
2016-10-01T09:21:02.420Z,60
2016-10-01T09:22:02.699Z,60
2016-10-01T09:23:02.461Z,60
2016-10-01T09:24:02.476Z,60
2016-10-01T09:25:02.519Z,60
2016-10-01T09:26:02.532Z,55
2016-10-01T09:28:02.589Z,55
2016-10-01T09:29:02.642Z,55
2016-10-01T09:30:02.633Z,55
2016-10-01T09:31:17.565Z,50
2016-10-01T09:32:17.594Z,50
2016-10-01T09:33:17.607Z,50
2016-10-01T09:34:17.640Z,50
2016-10-01T09:35:17.666Z,45
2016-10-01T09:36:02.777Z,45
2016-10-01T09:38:02.969Z,45
2016-10-01T09:39:02.837Z,50
2016-10-01T09:40:02.862Z,50
2016-10-01T09:41:03.076Z,50
2016-10-01T09:42:02.906Z,50
2016-10-01T09:43:02.926Z,55
2016-10-01T09:44:02.953Z,55
2016-10-01T09:45:02.979Z,55
2016-10-01T09:46:02.995Z,55
2016-10-01T09:47:03.021Z,55
2016-10-01T09:48:18.024Z,55
2016-10-01T09:49:18.002Z,55
2016-10-01T09:50:03.092Z,60
2016-10-01T09:51:03.115Z,55
2016-10-01T09:53:03.185Z,55
2016-10-01T09:54:03.193Z,50
2016-10-01T09:56:03.230Z,55
2016-10-01T09:57:18.179Z,55
2016-10-01T09:58:03.282Z,60
2016-10-01T09:59:03.302Z,65
2016-10-01T10:00:03.331Z,70
2016-10-01T10:01:18.276Z,70
2016-10-01T10:02:03.380Z,65
2016-10-01T10:03:03.399Z,60
2016-10-01T10:04:03.672Z,55
2016-10-01T10:05:18.363Z,55
2016-10-01T10:06:18.387Z,55
2016-10-01T10:07:03.497Z,50
2016-10-01T10:08:03.539Z,55
2016-10-01T10:09:03.543Z,55
2016-10-01T10:10:03.563Z,55
2016-10-01T10:11:03.598Z,60
2016-10-01T10:12:03.622Z,60
2016-10-01T10:13:03.639Z,65
2016-10-01T10:14:03.655Z,60
2016-10-01T10:15:03.691Z,60
2016-10-01T10:16:03.711Z,60
2016-10-01T10:17:18.649Z,65
2016-10-01T10:18:03.765Z,65
2016-10-01T10:20:03.805Z,70
2016-10-01T10:21:18.752Z,75
2016-10-01T10:22:03.848Z,80
2016-10-01T10:23:03.871Z,80
2016-10-01T10:24:03.895Z,80
2016-10-01T10:25:04.121Z,80
2016-10-01T10:26:03.949Z,80
2016-10-01T10:27:03.966Z,85
2016-10-01T10:28:03.996Z,85
2016-10-01T10:29:04.014Z,90
2016-10-01T10:30:04.042Z,90
2016-10-01T10:31:04.060Z,90
2016-10-01T10:32:04.083Z,90
2016-10-01T10:33:19.332Z,90
2016-10-01T10:34:04.133Z,90
2016-10-01T10:35:19.076Z,90
2016-10-01T10:36:19.097Z,85
2016-10-01T10:37:04.200Z,85
2016-10-01T10:38:04.227Z,90
2016-10-01T10:39:04.557Z,85
2016-10-01T10:40:04.275Z,90
2016-10-01T10:41:04.307Z,90
2016-10-01T10:42:04.332Z,95
2016-10-01T10:43:04.544Z,95
2016-10-01T10:44:04.391Z,100
2016-10-01T10:45:04.391Z,100
2016-10-01T10:46:04.413Z,105
2016-10-01T10:47:04.447Z,110
2016-10-01T10:48:04.507Z,110
2016-10-01T10:49:04.515Z,110
2016-10-01T10:50:19.437Z,105
2016-10-01T10:51:34.382Z,105
2016-10-01T10:52:19.483Z,105
2016-10-01T10:53:19.510Z,105
2016-10-01T10:54:04.603Z,100
2016-10-01T10:55:04.651Z,100
2016-10-01T10:56:04.657Z,95
2016-10-01T10:57:04.682Z,90
2016-10-01T10:58:19.626Z,90
2016-10-01T10:59:04.737Z,85
2016-10-01T11:00:05.054Z,85
2016-10-01T11:01:04.775Z,80
2016-10-01T11:04:19.775Z,75
2016-10-01T11:05:04.886Z,80
2016-10-01T11:06:04.895Z,75
2016-10-01T11:07:19.846Z,75
2016-10-01T11:08:19.874Z,75
2016-10-01T11:09:19.884Z,75
2016-10-01T11:10:04.993Z,80
2016-10-01T11:11:05.259Z,70
2016-10-01T11:12:05.050Z,65
2016-10-01T11:14:05.087Z,55
2016-10-01T11:15:05.422Z,55
2016-10-01T11:16:05.139Z,55
2016-10-01T11:19:05.204Z,45
2016-10-01T11:20:20.151Z,40
2016-10-01T11:21:05.255Z,40
2016-10-01T11:22:05.279Z,40
2016-10-01T11:23:05.307Z,40
2016-10-01T11:24:20.253Z,40
2016-10-01T11:25:05.361Z,45
2016-10-01T11:26:05.368Z,45
2016-10-01T11:27:05.397Z,45
2016-10-01T11:28:05.616Z,45
2016-10-01T11:29:05.452Z,50
2016-10-01T11:30:05.463Z,55
2016-10-01T11:31:05.492Z,55
2016-10-01T11:32:05.510Z,55
2016-10-01T11:33:05.535Z,55
2016-10-01T11:34:05.564Z,55
2016-10-01T11:35:05.580Z,55
2016-10-01T11:36:05.632Z,55
2016-10-01T11:38:05.661Z,50
2016-10-01T11:39:05.689Z,45
2016-10-01T11:40:20.624Z,40
2016-10-01T11:41:05.728Z,40
2016-10-01T11:42:05.760Z,35
2016-10-01T11:43:05.781Z,30
2016-10-01T11:44:05.809Z,30
2016-10-01T11:45:05.823Z,30
2016-10-01T11:46:05.944Z,30
2016-10-01T11:47:05.874Z,30
2016-10-01T11:48:05.890Z,35
2016-10-01T11:49:06.171Z,35
2016-10-01T11:50:05.970Z,40
2016-10-01T11:51:05.981Z,40
2016-10-01T11:52:05.990Z,40
2016-10-01T11:53:06.020Z,40
2016-10-01T11:54:21.208Z,40
2016-10-01T11:55:06.311Z,40
2016-10-01T11:56:35.931Z,35
2016-10-01T11:57:06.110Z,35
2016-10-01T11:58:06.142Z,35
2016-10-01T11:59:06.165Z,35
2016-10-01T12:00:06.182Z,35
2016-10-01T12:01:06.210Z,35
2016-10-01T12:02:06.235Z,35
2016-10-01T12:03:06.245Z,35
2016-10-01T12:04:06.279Z,30
2016-10-01T12:05:06.297Z,30
2016-10-01T12:06:06.337Z,30
2016-10-01T12:07:21.271Z,30
2016-10-01T12:08:06.365Z,30
2016-10-01T12:09:06.391Z,30
2016-10-01T12:10:06.416Z,35
2016-10-01T12:11:21.576Z,35
2016-10-01T12:12:06.480Z,40
2016-10-01T12:14:06.516Z,45
2016-10-01T12:15:06.539Z,45
2016-10-01T12:16:06.561Z,50
2016-10-01T12:17:06.585Z,50
2016-10-01T12:18:21.553Z,50
2016-10-01T12:19:06.639Z,50
2016-10-01T12:20:06.658Z,50
2016-10-01T12:21:06.694Z,50
2016-10-01T12:22:06.714Z,55
2016-10-01T12:23:21.655Z,55
2016-10-01T12:24:06.754Z,55
2016-10-01T12:25:06.793Z,55
2016-10-01T12:26:06.801Z,55
2016-10-01T12:27:07.027Z,55
2016-10-01T12:28:21.778Z,55
2016-10-01T12:29:06.880Z,55
2016-10-01T12:30:06.890Z,55
2016-10-01T12:31:06.923Z,55
2016-10-01T12:32:06.939Z,55
2016-10-01T12:33:06.966Z,55
2016-10-01T12:34:21.918Z,55
2016-10-01T12:35:21.935Z,50
2016-10-01T12:36:07.187Z,50
2016-10-01T12:37:07.055Z,45
2016-10-01T12:39:22.033Z,45
2016-10-01T12:40:07.135Z,45
2016-10-01T12:41:07.157Z,45
2016-10-01T12:43:22.125Z,45
2016-10-01T12:44:07.240Z,45
2016-10-01T12:45:07.256Z,40
2016-10-01T12:46:07.282Z,40
2016-10-01T12:47:07.299Z,40
2016-10-01T12:48:07.321Z,40
2016-10-01T12:49:07.346Z,40
2016-10-01T12:50:07.376Z,35
2016-10-01T12:51:07.395Z,30
2016-10-01T12:52:07.424Z,30
2016-10-01T12:53:07.448Z,25
2016-10-01T12:54:07.467Z,25
2016-10-01T12:55:07.486Z,25
2016-10-01T12:56:07.516Z,20
2016-10-01T12:57:07.538Z,20
2016-10-01T12:58:07.818Z,15
2016-10-01T12:59:22.497Z,15
2016-10-01T13:00:07.604Z,15
2016-10-01T13:01:07.637Z,20
2016-10-01T13:02:07.649Z,20
2016-10-01T13:03:07.673Z,20
2016-10-01T13:04:07.700Z,25
2016-10-01T13:05:07.725Z,30
2016-10-01T13:06:07.764Z,30
2016-10-01T13:07:22.687Z,35
2016-10-01T13:08:22.711Z,35
2016-10-01T13:09:08.082Z,40
2016-10-01T13:10:07.846Z,40
2016-10-01T13:11:07.865Z,40
2016-10-01T13:12:07.885Z,35
2016-10-01T13:13:07.907Z,35
2016-10-01T13:14:07.938Z,35
2016-10-01T13:15:22.875Z,35
2016-10-01T13:17:08.005Z,35
2016-10-01T13:18:08.031Z,35
2016-10-01T13:19:22.974Z,35
2016-10-01T13:20:08.073Z,35
2016-10-01T13:21:08.107Z,35
2016-10-01T13:22:08.122Z,35
2016-10-01T13:23:08.148Z,35
2016-10-01T13:24:23.093Z,30
2016-10-01T13:26:08.219Z,25
2016-10-01T13:28:08.265Z,30
2016-10-01T13:29:08.293Z,35
2016-10-01T13:30:08.612Z,35
2016-10-01T13:31:23.258Z,40
2016-10-01T13:32:08.625Z,35
2016-10-01T13:33:08.388Z,35
2016-10-01T13:34:08.402Z,30
2016-10-01T13:35:08.427Z,30
2016-10-01T13:36:08.462Z,35
2016-10-01T13:37:08.479Z,35
2016-10-01T13:38:08.497Z,35
2016-10-01T13:39:08.526Z,40
2016-10-01T13:40:08.556Z,45
2016-10-01T13:41:08.572Z,50
2016-10-01T13:42:08.849Z,50
2016-10-01T13:43:08.617Z,50
2016-10-01T13:44:38.493Z,45
2016-10-01T13:45:08.666Z,40
2016-10-01T13:46:23.617Z,35
2016-10-01T13:47:08.712Z,35
2016-10-01T13:48:08.773Z,30
2016-10-01T13:49:08.761Z,30
2016-10-01T13:50:23.721Z,30
2016-10-01T13:51:09.357Z,30
2016-10-01T13:52:08.834Z,35
2016-10-01T13:53:08.853Z,40
2016-10-01T13:54:08.880Z,45
2016-10-01T13:55:08.905Z,50
2016-10-01T13:56:08.926Z,55
2016-10-01T13:57:08.948Z,55
2016-10-01T13:58:08.972Z,55
2016-10-01T13:59:08.994Z,55
2016-10-01T14:00:09.025Z,50
2016-10-01T14:01:09.353Z,50
2016-10-01T14:02:09.695Z,45
2016-10-01T14:03:09.100Z,40
2016-10-01T14:04:09.129Z,35
2016-10-01T14:05:09.157Z,35
2016-10-01T14:06:09.167Z,30
2016-10-01T14:07:09.196Z,30
2016-10-01T14:08:09.215Z,30
2016-10-01T14:09:09.239Z,30
2016-10-01T14:10:09.269Z,30
2016-10-01T14:11:09.293Z,30
2016-10-01T14:13:09.328Z,25
2016-10-01T14:14:09.349Z,20
2016-10-01T14:15:09.395Z,20
2016-10-01T14:16:09.404Z,20
2016-10-01T14:17:09.434Z,20
2016-10-01T14:18:24.618Z,20
2016-10-01T14:19:24.403Z,20
2016-10-01T14:20:24.422Z,20
2016-10-01T14:21:09.835Z,20
2016-10-01T14:22:09.549Z,20
2016-10-01T14:23:09.574Z,20
2016-10-01T14:24:09.596Z,25
2016-10-01T14:25:09.663Z,25
2016-10-01T14:26:24.572Z,25
2016-10-01T14:27:09.971Z,25
2016-10-01T14:28:24.618Z,25
2016-10-01T14:29:09.715Z,20
2016-10-01T14:30:09.746Z,20
2016-10-01T14:31:09.766Z,20
2016-10-01T14:32:24.739Z,20
2016-10-01T14:34:24.763Z,20
2016-10-01T14:35:09.858Z,20
2016-10-01T14:37:09.914Z,20
2016-10-01T14:38:09.962Z,20
2016-10-01T14:39:09.973Z,25
2016-10-01T14:40:09.976Z,25
2016-10-01T14:41:10.005Z,25
2016-10-01T14:42:10.028Z,25
2016-10-01T14:43:24.981Z,30
2016-10-01T14:44:10.636Z,30
2016-10-01T14:45:10.108Z,25
2016-10-01T14:46:10.124Z,25
2016-10-01T14:47:10.555Z,20
2016-10-01T14:48:10.174Z,20
2016-10-01T14:49:10.188Z,15
2016-10-01T14:50:25.142Z,15
2016-10-01T14:51:10.248Z,15
2016-10-01T14:52:10.277Z,15
2016-10-01T14:53:10.290Z,15
2016-10-01T14:54:10.311Z,10
2016-10-01T14:55:10.343Z,10
2016-10-01T14:56:10.391Z,10
2016-10-01T14:57:10.383Z,10
2016-10-01T14:58:10.412Z,10
2016-10-01T14:59:10.436Z,15
2016-10-01T15:00:10.466Z,15
2016-10-01T15:01:25.406Z,15
2016-10-01T15:02:10.515Z,15
2016-10-01T15:03:25.456Z,20
2016-10-01T15:04:10.563Z,15
2016-10-01T15:05:25.498Z,15
2016-10-01T15:06:25.525Z,15
2016-10-01T15:07:25.799Z,15
2016-10-01T15:09:10.671Z,10
2016-10-01T15:10:10.711Z,10
2016-10-01T15:11:10.726Z,10
2016-10-01T15:12:10.750Z,10